メインページ
METAR-TAF:

METAR-TAF

空港 :

ヌメア国際空港, ニューカレドニア

緯度: 22-01S, 経度: 166-13E, 海抜: 16m

現時点の気象観測

当レポートは31分前の01:00(UTC)に作成
北/北東の風 8kt、北/北西からの間で変化する
気温 28°C
湿度 55%
気圧 1015 hPa
視程10km以上
高度4300ftの雲は散在している
高度5800ftの千切れ雲あり
高度7200ftの千切れ雲あり

METAR: NWWW 160100Z AUTO 03008KT 340V100 9999 SCT043 BKN058 BKN072 28/18 Q1015 TEMPO 07015G25KT

時間: 12:31 (01:31 UTC)

予報

当レポートは2時間31分前の23:00(UTC)に作成
予報は16日の 00時(UTC)から 16日の 24時(UTC)まで有効
の風 12kt
視程10km以上
高度5000ftの千切れ雲あり
16日の 00時(UTC)から 16日の 06時(UTC)まで一時的に
東/北東の風 15kt、最大25ktの突風を伴う

TAF: NWWW 152300Z 1600/1624 10012KT 9999 BKN050 TEMPO 1600/1606 07015G25KT

4,000以上の空港の気象観測と天気予報(METAR報とTAF報)

利用可能な観測所は地図上に黄色い丸と赤い丸で示す。

丸の上にカーソルを重ねると観測所名を参照できる。

次にクリックすると気象観測と天気予報を参照できる。

マップの切り替え:黒色「×」印の緑ボタンをクリックして拡大、「-」印の緑ボタンをクリックして縮小、緑色の三角印をクリックして隣りの地図に切り替え


METAR-TAF: